Cedar Falls, Iowa
Current Conditions -  °F | °C
As of 10:54 PM on Friday 19 Dec 2014 (Local Time) from KALO Reporting Station
Unknown Precip Unknown Precip  
Wind Chill: 21°   Ceiling: 1700
Heat Index: 29°   Visibility: 10mi
Dew Point: 22°   Wind: 8mph
Humidity: 75%   Direction: 170°S
Pressure: 30.21"   Gusts: NA
Location:  42.53°N, 92.44°W
Report Text: KALO 200454Z 17007KT 10SM UP OVC017 M02/M06 A3021 RMK AO2 UPB44 SLP242 P0000 T10171056
Loading
Personal Weather Stations






























Interactive Weather Map New forecast layout! Learn more

10-Day Weather Forecast

Advertisements
Track Severe Weather on mobile